Time;durP1;ratioP1;P1;durP2;ratioP2;P2;SDS_P1;SDS_P2;PMS_P1;PMS_P2;Temp;Humidity;BMP_temperature;BMP_pressure;BME280_temperature;BME280_humidity;BME280_pressure;Samples;Min_cycle;Max_cycle;Signal;HPM_P1;HPM_P2
2021/05/13 00:00:26;;;;;;;;;;;;;;;19.34;58.33;100095.28;5050643;28;1681;-47
2021/05/13 00:02:52;;;;;;;;;;;;;;;19.32;58.17;100101.78;5045032;28;2431;-47
2021/05/13 00:05:18;;;;;;;;;;;;;;;19.34;58.30;100089.91;5033015;28;1055;-47
2021/05/13 00:07:44;;;;;;;;;;;;;;;19.31;58.39;100089.38;5045365;28;1934;-48
2021/05/13 00:10:14;;;;;;;;;;;;;;;19.31;57.87;100084.84;5050821;28;1791;-47
2021/05/13 00:12:49;;;;;;;;;;;;;;;19.30;58.12;100077.81;5049054;28;1708;-48
2021/05/13 00:15:17;;;;;;;;;;;;;;;19.32;58.19;100074.97;5039245;28;1514;-47
2021/05/13 00:17:46;;;;;;;;;;;;;;;19.30;58.08;100077.81;5040264;28;1814;-47
2021/05/13 00:20:16;;;;;;;;;;;;;;;19.29;57.85;100062.72;5049370;28;1815;-47
2021/05/13 00:22:43;;;;;;;;;;;;;;;19.29;58.03;100060.03;5050550;28;1996;-47
2021/05/13 00:25:10;;;;;;;;;;;;;;;19.28;57.95;100053.84;5042105;28;1084;-47
2021/05/13 00:27:37;;;;;;;;;;;;;;;19.28;57.80;100053.00;5034133;28;1720;-47
2021/05/13 00:30:06;;;;;;;;;;;;;;;19.30;57.46;100056.38;5050963;28;1705;-48
2021/05/13 00:32:32;;;;;;;;;;;;;;;19.30;57.70;100051.03;5046893;28;1733;-47
2021/05/13 00:35:01;;;;;;;;;;;;;;;19.26;57.91;100047.81;5050998;28;1664;-47
2021/05/13 00:37:28;;;;;;;;;;;;;;;19.27;57.44;100030.69;5041315;28;1818;-47
2021/05/13 00:39:54;;;;;;;;;;;;;;;19.28;57.84;100026.22;5045125;28;1569;-47
2021/05/13 00:42:23;;;;;;;;;;;;;;;19.25;56.85;100031.88;5042321;28;2061;-47
2021/05/13 00:44:51;;;;;;;;;;;;;;;19.25;57.37;100015.78;5052100;28;1909;-47
2021/05/13 00:47:17;;;;;;;;;;;;;;;19.24;57.02;100025.66;5049859;28;1655;-47
2021/05/13 00:49:43;;;;;;;;;;;;;;;19.28;57.09;100020.84;5051163;28;1672;-47
2021/05/13 00:52:10;;;;;;;;;;;;;;;19.22;57.20;100033.03;5050647;28;1619;-47
2021/05/13 00:54:46;;;;;;;;;;;;;;;19.24;57.07;100028.34;5044369;28;1772;-47
2021/05/13 00:57:14;;;;;;;;;;;;;;;19.25;56.78;100021.13;5042192;28;1730;-47
2021/05/13 00:59:47;;;;;;;;;;;;;;;19.21;57.25;100014.41;5046880;28;1677;-47
2021/05/13 01:02:17;;;;;;;;;;;;;;;19.22;56.66;100002.72;5045635;28;1697;-47
2021/05/13 01:04:45;;;;;;;;;;;;;;;19.23;56.52;100010.56;5052336;28;1902;-47
2021/05/13 01:07:14;;;;;;;;;;;;;;;19.23;56.68;100012.41;5044943;28;1921;-47
2021/05/13 01:09:43;;;;;;;;;;;;;;;19.21;56.83;100014.41;5040030;28;1095;-47
2021/05/13 01:12:14;;;;;;;;;;;;;;;19.22;56.39;100016.94;5039320;28;1933;-47
2021/05/13 01:14:47;;;;;;;;;;;;;;;19.24;56.67;100024.84;5048214;28;1612;-47
2021/05/13 01:17:26;;;;;;;;;;;;;;;19.23;56.67;100032.00;5048062;28;1888;-47
2021/05/13 01:19:56;;;;;;;;;;;;;;;19.22;57.11;100045.59;5037763;28;1972;-47
2021/05/13 01:22:26;;;;;;;;;;;;;;;19.20;57.15;100036.84;5035907;28;1648;-47
2021/05/13 01:24:53;;;;;;;;;;;;;;;19.21;56.98;100025.13;5048069;28;1910;-47
2021/05/13 01:27:20;;;;;;;;;;;;;;;19.20;56.93;100024.28;5051990;28;1801;-46
2021/05/13 01:29:50;;;;;;;;;;;;;;;19.19;56.86;100036.00;5048932;28;1903;-47
2021/05/13 01:32:20;;;;;;;;;;;;;;;19.19;56.80;100019.91;5041414;28;1836;-47
2021/05/13 01:34:47;;;;;;;;;;;;;;;19.21;56.96;100019.78;5045089;28;1914;-47
2021/05/13 01:37:14;;;;;;;;;;;;;;;19.22;56.88;100016.09;5047666;28;1468;-47
2021/05/13 01:39:43;;;;;;;;;;;;;;;19.22;56.88;100021.47;5049308;28;2143;-47
2021/05/13 01:42:13;;;;;;;;;;;;;;;19.20;56.64;100018.06;5051407;28;1749;-48
2021/05/13 01:44:39;;;;;;;;;;;;;;;19.21;56.87;100036.69;5051645;28;1902;-47
2021/05/13 01:47:05;;;;;;;;;;;;;;;19.22;56.67;100037.56;5048594;28;1768;-47
2021/05/13 01:49:33;;;;;;;;;;;;;;;19.19;56.87;100027.13;5035190;28;1062;-47
2021/05/13 01:52:02;;;;;;;;;;;;;;;19.18;56.80;100026.28;5050253;28;2007;-47
2021/05/13 01:54:30;;;;;;;;;;;;;;;19.18;56.94;100030.78;5051047;28;1715;-47
2021/05/13 01:57:12;;;;;;;;;;;;;;;19.17;56.72;100031.81;5053586;28;1736;-47
2021/05/13 01:59:39;;;;;;;;;;;;;;;19.19;57.05;100032.47;5046075;28;2041;-47
2021/05/13 02:02:06;;;;;;;;;;;;;;;19.17;56.73;100021.91;5051460;28;1708;-47
2021/05/13 02:04:33;;;;;;;;;;;;;;;19.19;56.57;100035.16;5053542;28;1901;-47
2021/05/13 02:07:01;;;;;;;;;;;;;;;19.18;56.55;100025.44;5048036;28;1810;-47
2021/05/13 02:09:31;;;;;;;;;;;;;;;19.20;56.76;100031.47;5049621;28;1837;-47
2021/05/13 02:11:59;;;;;;;;;;;;;;;19.19;56.73;100037.84;5044834;23;3722;-70
2021/05/13 02:14:26;;;;;;;;;;;;;;;19.17;56.92;100029.13;5022504;28;1515;-70
2021/05/13 02:16:52;;;;;;;;;;;;;;;19.16;56.95;100033.66;5023990;28;1572;-70
2021/05/13 02:19:18;;;;;;;;;;;;;;;19.16;56.76;100038.13;5023307;28;1582;-70
2021/05/13 02:21:44;;;;;;;;;;;;;;;19.15;56.92;100042.66;5024072;28;1474;-70
2021/05/13 02:24:10;;;;;;;;;;;;;;;19.13;56.66;100038.47;5021450;28;1910;-69
2021/05/13 02:26:36;;;;;;;;;;;;;;;19.16;56.68;100046.19;5024838;28;1385;-70
2021/05/13 02:29:02;;;;;;;;;;;;;;;19.16;56.73;100033.66;5028018;28;1897;-70
2021/05/13 02:31:29;;;;;;;;;;;;;;;19.15;56.79;100041.84;5020864;28;1709;-70
2021/05/13 02:33:55;;;;;;;;;;;;;;;19.17;56.58;100047.88;5023669;28;1586;-70
2021/05/13 02:36:21;;;;;;;;;;;;;;;19.15;56.55;100031.13;5022420;28;1464;-70
2021/05/13 02:38:47;;;;;;;;;;;;;;;19.16;56.14;100041.69;5021597;28;1771;-59
2021/05/13 02:41:13;;;;;;;;;;;;;;;19.14;56.86;100032.97;5024478;28;1346;-70
2021/05/13 02:43:39;;;;;;;;;;;;;;;19.13;56.48;100039.31;5026023;28;1906;-59
2021/05/13 02:46:05;;;;;;;;;;;;;;;19.15;56.74;100041.84;5024589;28;1562;-70
2021/05/13 02:48:32;;;;;;;;;;;;;;;19.14;56.62;100040.13;5024300;28;1617;-59
2021/05/13 02:50:59;;;;;;;;;;;;;;;19.12;56.50;100036.75;5031669;28;1566;-59
2021/05/13 02:53:25;;;;;;;;;;;;;;;19.13;56.24;100033.09;5021678;28;1625;-70
2021/05/13 02:55:51;;;;;;;;;;;;;;;19.17;56.37;100045.19;5021534;28;994;-70
2021/05/13 02:58:17;;;;;;;;;;;;;;;19.14;56.61;100034.78;5024529;28;1513;-59
2021/05/13 03:00:52;;;;;;;;;;;;;;;19.15;56.21;100033.78;5028705;28;1538;-59
2021/05/13 03:03:18;;;;;;;;;;;;;;;19.11;56.43;100033.25;5007291;28;1910;-70
2021/05/13 03:05:45;;;;;;;;;;;;;;;19.10;56.65;100033.41;5002961;28;1480;-59
2021/05/13 03:08:12;;;;;;;;;;;;;;;19.11;56.40;100035.09;5002147;28;1642;-70
2021/05/13 03:10:43;;;;;;;;;;;;;;;19.14;56.32;100035.63;5012390;28;1343;-70
2021/05/13 03:13:11;;;;;;;;;;;;;;;19.15;56.36;100049.88;5012085;28;1524;-59
2021/05/13 03:15:37;;;;;;;;;;;;;;;19.13;56.34;100038.47;5007253;28;1536;-59
2021/05/13 03:18:03;;;;;;;;;;;;;;;19.13;56.45;100047.34;5004002;28;1472;-59
2021/05/13 03:20:34;;;;;;;;;;;;;;;19.15;56.50;100063.28;5001241;28;1437;-59
2021/05/13 03:23:01;;;;;;;;;;;;;;;19.15;56.58;100049.88;5006836;28;1906;-71
2021/05/13 03:25:30;;;;;;;;;;;;;;;19.15;56.46;100037.31;5003033;28;1367;-70
2021/05/13 03:28:07;;;;;;;;;;;;;;;19.16;56.47;100054.22;5006240;28;1493;-70
2021/05/13 03:30:33;;;;;;;;;;;;;;;19.13;56.90;100041.16;5002109;28;1602;-70
2021/05/13 03:33:00;;;;;;;;;;;;;;;19.12;56.64;100042.13;5005459;28;1575;-70
2021/05/13 03:35:26;;;;;;;;;;;;;;;19.14;56.46;100046.34;5002089;28;1583;-71
2021/05/13 03:37:52;;;;;;;;;;;;;;;19.10;56.78;100038.75;5001099;28;1518;-59
2021/05/13 03:40:19;;;;;;;;;;;;;;;19.10;56.64;100026.22;5004452;28;1486;-70
2021/05/13 03:42:45;;;;;;;;;;;;;;;19.14;56.66;100026.72;5011820;28;1516;-59
2021/05/13 03:45:11;;;;;;;;;;;;;;;19.10;56.11;100026.22;5012006;28;1969;-71
2021/05/13 03:47:37;;;;;;;;;;;;;;;19.12;56.66;100031.41;5008753;28;1524;-59
2021/05/13 03:50:04;;;;;;;;;;;;;;;19.14;56.50;100038.31;5002407;28;1626;-70
2021/05/13 03:52:30;;;;;;;;;;;;;;;19.12;56.85;100034.09;5003015;28;1499;-70
2021/05/13 03:54:56;;;;;;;;;;;;;;;19.10;56.76;100022.69;5002371;28;971;-58
2021/05/13 03:57:23;;;;;;;;;;;;;;;19.13;57.26;100033.94;5011385;28;1568;-59
2021/05/13 03:59:51;;;;;;;;;;;;;;;19.12;56.96;100036.75;5011779;28;1469;-59
2021/05/13 04:02:28;;;;;;;;;;;;;;;19.09;56.96;100048.66;5010677;28;1538;-59
2021/05/13 04:04:54;;;;;;;;;;;;;;;19.08;56.80;100053.16;5008639;28;1911;-70
2021/05/13 04:07:20;;;;;;;;;;;;;;;19.10;56.80;100044.13;5015736;28;1512;-70
2021/05/13 04:09:46;;;;;;;;;;;;;;;19.08;57.05;100047.81;5005405;28;1059;-71
2021/05/13 04:12:12;;;;;;;;;;;;;;;19.08;57.13;100047.81;5012918;28;1809;-71
2021/05/13 04:14:39;;;;;;;;;;;;;;;19.08;57.19;100050.50;5005208;28;1433;-69
2021/05/13 04:17:07;;;;;;;;;;;;;;;19.10;57.14;100062.88;5005506;28;1650;-70
2021/05/13 04:19:33;;;;;;;;;;;;;;;19.09;57.12;100059.38;5005787;28;983;-70
2021/05/13 04:21:59;;;;;;;;;;;;;;;19.12;57.14;100063.56;5016483;28;1693;-59
2021/05/13 04:24:26;;;;;;;;;;;;;;;19.09;57.11;100070.09;5009620;28;1979;-59
2021/05/13 04:26:52;;;;;;;;;;;;;;;19.12;57.07;100068.94;5014109;28;1733;-59
2021/05/13 04:29:18;;;;;;;;;;;;;;;19.12;56.92;100082.31;5007207;28;1571;-72
2021/05/13 04:31:45;;;;;;;;;;;;;;;19.13;56.88;100074.13;5016118;28;974;-59
2021/05/13 04:34:11;;;;;;;;;;;;;;;19.14;56.98;100072.28;5008698;28;1658;-59
2021/05/13 04:36:38;;;;;;;;;;;;;;;19.16;56.79;100075.66;5014555;28;1389;-59
2021/05/13 04:39:04;;;;;;;;;;;;;;;19.20;56.54;100080.59;5008862;28;1615;-70
2021/05/13 04:41:31;;;;;;;;;;;;;;;19.18;57.14;100089.75;4998755;28;1032;-59
2021/05/13 04:43:58;;;;;;;;;;;;;;;19.15;57.31;100080.19;5010614;28;1883;-59
2021/05/13 04:46:28;;;;;;;;;;;;;;;19.12;57.32;100079.66;5001188;28;1718;-70
2021/05/13 04:49:13;;;;;;;;;;;;;;;19.10;57.17;100089.69;5012298;28;1589;-70
2021/05/13 04:51:39;;;;;;;;;;;;;;;19.13;57.34;100082.19;5011964;28;1508;-71
2021/05/13 04:54:05;;;;;;;;;;;;;;;19.12;57.16;100079.66;5005930;28;1668;-59
2021/05/13 04:56:32;;;;;;;;;;;;;;;19.08;57.13;100076.44;5013802;28;979;-59
2021/05/13 04:58:58;;;;;;;;;;;;;;;19.13;57.94;100082.19;5003493;28;1817;-59
2021/05/13 05:01:25;;;;;;;;;;;;;;;19.10;57.26;100068.25;5009205;28;1713;-70
2021/05/13 05:03:51;;;;;;;;;;;;;;;19.10;57.03;100070.91;5010292;28;1902;-70
2021/05/13 05:06:18;;;;;;;;;;;;;;;19.11;57.63;100067.25;5012789;28;1575;-59
2021/05/13 05:08:44;;;;;;;;;;;;;;;19.12;57.40;100079.66;5004122;28;1531;-59
2021/05/13 05:11:11;;;;;;;;;;;;;;;19.16;57.20;100086.38;5010248;28;1290;-59
2021/05/13 05:13:37;;;;;;;;;;;;;;;19.13;57.25;100082.19;5004029;28;1793;-70
2021/05/13 05:16:04;;;;;;;;;;;;;;;19.11;57.44;100083.34;5004916;28;1574;-70
2021/05/13 05:18:30;;;;;;;;;;;;;;;19.12;57.25;100093.91;5012234;28;1579;-59
2021/05/13 05:20:56;;;;;;;;;;;;;;;19.09;57.30;100083.47;5009535;28;1453;-59
2021/05/13 05:23:24;;;;;;;;;;;;;;;19.12;57.32;100088.56;5006664;28;1910;-59
2021/05/13 05:25:50;;;;;;;;;;;;;;;19.11;57.33;100089.53;5006864;28;1010;-70
2021/05/13 05:28:18;;;;;;;;;;;;;;;19.07;57.24;100086.31;5014657;28;1517;-59
2021/05/13 05:30:44;;;;;;;;;;;;;;;19.13;57.40;100076.81;5009550;28;1402;-59
2021/05/13 05:33:10;;;;;;;;;;;;;;;19.10;57.29;100081.63;5005602;28;1502;-70
2021/05/13 05:35:37;;;;;;;;;;;;;;;19.11;57.26;100088.69;5011890;28;1614;-59
2021/05/13 05:38:04;;;;;;;;;;;;;;;19.08;57.47;100085.31;5003151;28;1575;-59
2021/05/13 05:40:31;;;;;;;;;;;;;;;19.11;57.43;100086.84;5006512;28;1066;-59
2021/05/13 05:42:57;;;;;;;;;;;;;;;19.11;57.39;100083.34;5008892;28;1664;-69
2021/05/13 05:45:25;;;;;;;;;;;;;;;19.14;57.39;100081.19;5004928;28;1903;-59
2021/05/13 05:47:52;;;;;;;;;;;;;;;19.21;57.31;100087.63;5007834;28;1506;-70
2021/05/13 05:50:19;;;;;;;;;;;;;;;18.96;57.01;100032.97;5013172;28;1567;-70
2021/05/13 05:52:45;;;;;;;;;;;;;;;19.21;54.82;100084.94;5011412;28;1574;-69
2021/05/13 05:55:12;;;;;;;;;;;;;;;19.13;54.82;100090.22;5005826;28;1343;-70
2021/05/13 05:57:39;;;;;;;;;;;;;;;19.24;55.30;100081.13;5013691;28;1456;-59
2021/05/13 06:00:06;;;;;;;;;;;;;;;19.32;54.46;100075.84;5002057;28;1570;-59
2021/05/13 06:02:33;;;;;;;;;;;;;;;19.29;55.12;100078.81;5002220;28;1485;-69
2021/05/13 06:04:58;;;;;;;;;;;;;;;19.35;55.30;100077.34;5003731;28;2039;-67
2021/05/13 06:07:25;;;;;;;;;;;;;;;19.29;54.49;100086.84;5011597;28;1543;-65
2021/05/13 06:09:51;;;;;;;;;;;;;;;19.26;54.24;100088.00;5009718;28;1394;-70
2021/05/13 06:12:17;;;;;;;;;;;;;;;19.28;55.40;100091.38;4999882;28;1659;-68
2021/05/13 06:14:44;;;;;;;;;;;;;;;19.30;55.42;100077.81;5010310;28;1429;-69
2021/05/13 06:17:10;;;;;;;;;;;;;;;19.23;54.94;100082.94;5012522;28;1531;-55
2021/05/13 06:19:36;;;;;;;;;;;;;;;19.20;54.90;100093.13;5009876;28;1470;-56
2021/05/13 06:22:02;;;;;;;;;;;;;;;19.17;55.00;100091.59;5008669;28;1925;-53
2021/05/13 06:24:28;;;;;;;;;;;;;;;19.15;55.10;100090.91;5008905;28;1985;-53
2021/05/13 06:26:55;;;;;;;;;;;;;;;19.18;54.80;100095.13;5011293;28;1504;-55
2021/05/13 06:29:21;;;;;;;;;;;;;;;19.18;55.41;100089.75;5011124;28;1333;-61
2021/05/13 06:31:48;;;;;;;;;;;;;;;19.16;55.13;100071.16;5008127;28;1200;-60
2021/05/13 06:34:14;;;;;;;;;;;;;;;19.26;56.63;100076.44;5012187;28;1518;-58
2021/05/13 06:36:40;;;;;;;;;;;;;;;19.32;55.69;100074.97;5007868;28;1553;-58
2021/05/13 06:39:07;;;;;;;;;;;;;;;19.30;55.49;100067.09;5003857;28;1461;-57
2021/05/13 06:41:33;;;;;;;;;;;;;;;19.35;55.88;100067.47;5011010;28;1981;-59
2021/05/13 06:44:00;;;;;;;;;;;;;;;19.46;56.30;100072.59;5011818;28;1964;-58
2021/05/13 06:46:26;;;;;;;;;;;;;;;19.50;56.45;100072.25;5012109;28;1525;-58
2021/05/13 06:48:53;;;;;;;;;;;;;;;19.53;57.24;100066.59;5012652;28;1756;-59
2021/05/13 06:51:19;;;;;;;;;;;;;;;19.54;58.43;100062.94;5013473;28;1614;-58
2021/05/13 06:53:45;;;;;;;;;;;;;;;19.56;58.08;100066.31;5012964;28;1615;-59
2021/05/13 06:56:11;;;;;;;;;;;;;;;19.61;57.87;100069.34;5013977;28;1054;-59
2021/05/13 06:58:37;;;;;;;;;;;;;;;19.66;57.62;100070.56;5012551;28;1556;-59
2021/05/13 07:01:03;;;;;;;;;;;;;;;19.67;57.38;100064.19;5003938;28;1586;-59
2021/05/13 07:03:30;;;;;;;;;;;;;;;19.64;57.54;100058.31;5003591;28;1910;-58
2021/05/13 07:05:57;;;;;;;;;;;;;;;19.66;57.16;100053.63;5007839;28;1430;-59
2021/05/13 07:08:23;;;;;;;;;;;;;;;19.71;57.86;100058.50;5013145;28;1713;-59
2021/05/13 07:10:49;;;;;;;;;;;;;;;19.68;58.16;100046.28;5013229;28;1122;-58
2021/05/13 07:13:15;;;;;;;;;;;;;;;19.67;58.19;100045.41;5007323;28;1737;-59
2021/05/13 07:15:42;;;;;;;;;;;;;;;19.64;57.83;100028.81;5002442;28;1587;-59
2021/05/13 07:18:11;;;;;;;;;;;;;;;19.65;57.71;100041.22;5003162;28;1630;-58
2021/05/13 07:20:38;;;;;;;;;;;;;;;19.66;58.01;100032.19;5005819;28;1630;-58
2021/05/13 07:23:05;;;;;;;;;;;;;;;19.65;58.59;100033.16;5009697;28;1520;-58
2021/05/13 07:25:32;;;;;;;;;;;;;;;19.63;58.64;100044.03;5004819;28;1906;-58
2021/05/13 07:27:58;;;;;;;;;;;;;;;19.64;58.57;100043.06;5007181;28;1777;-59
2021/05/13 07:30:24;;;;;;;;;;;;;;;19.64;58.58;100044.91;5006759;28;1578;-59
2021/05/13 07:32:51;;;;;;;;;;;;;;;19.66;58.72;100040.22;5012083;28;1429;-59
2021/05/13 07:35:17;;;;;;;;;;;;;;;19.65;58.51;100049.25;5012970;28;1618;-59
2021/05/13 07:37:43;;;;;;;;;;;;;;;19.65;58.79;100038.53;5010075;28;1473;-59
2021/05/13 07:40:11;;;;;;;;;;;;;;;19.64;58.83;100045.75;5007194;28;1051;-59
2021/05/13 07:42:37;;;;;;;;;;;;;;;19.64;58.95;100043.06;5013780;28;1477;-60
2021/05/13 07:45:05;;;;;;;;;;;;;;;19.62;59.02;100038.84;5004933;28;1902;-59
2021/05/13 07:47:36;;;;;;;;;;;;;;;19.60;59.13;100057.78;5004904;28;1676;-59
2021/05/13 07:50:03;;;;;;;;;;;;;;;19.60;59.09;100046.22;5005396;28;1975;-58
2021/05/13 07:52:29;;;;;;;;;;;;;;;19.61;58.35;100050.56;5007230;28;1685;-58
2021/05/13 07:54:55;;;;;;;;;;;;;;;19.61;59.15;100061.28;5017102;28;1056;-59
2021/05/13 07:57:22;;;;;;;;;;;;;;;19.60;59.26;100073.88;5013489;28;1710;-59
2021/05/13 07:59:48;;;;;;;;;;;;;;;19.60;59.24;100051.59;5008043;28;1661;-59
2021/05/13 08:02:14;;;;;;;;;;;;;;;19.59;58.75;100066.81;5016682;28;1486;-58
2021/05/13 08:04:40;;;;;;;;;;;;;;;19.57;59.46;100065.28;5015129;28;1977;-58
2021/05/13 08:07:06;;;;;;;;;;;;;;;19.58;59.36;100072.34;5016444;28;1668;-59
2021/05/13 08:09:32;;;;;;;;;;;;;;;19.57;59.43;100054.56;5010664;28;1650;-59
2021/05/13 08:11:58;;;;;;;;;;;;;;;19.57;59.29;100078.69;5008215;28;1685;-59
2021/05/13 08:14:25;;;;;;;;;;;;;;;19.59;58.85;100069.50;5006064;28;1480;-59
2021/05/13 08:16:51;;;;;;;;;;;;;;;19.59;59.07;100058.75;5016499;28;1248;-58
2021/05/13 08:19:17;;;;;;;;;;;;;;;19.59;58.85;100077.53;5016028;28;1717;-59
2021/05/13 08:21:43;;;;;;;;;;;;;;;19.61;59.42;100077.38;5004554;28;1769;-59
2021/05/13 08:24:09;;;;;;;;;;;;;;;19.59;59.03;100061.44;5001428;28;1975;-59
2021/05/13 08:26:35;;;;;;;;;;;;;;;19.57;59.59;100067.97;5014603;28;904;-59
2021/05/13 08:29:01;;;;;;;;;;;;;;;19.61;59.62;100066.66;5016176;28;1553;-60
2021/05/13 08:31:28;;;;;;;;;;;;;;;19.63;59.43;100068.19;5004062;28;1721;-58
2021/05/13 08:33:54;;;;;;;;;;;;;;;19.67;59.26;100076.75;5015640;28;1428;-58
2021/05/13 08:36:20;;;;;;;;;;;;;;;19.69;59.15;100082.81;5007325;28;1579;-58
2021/05/13 08:38:46;;;;;;;;;;;;;;;19.68;59.41;100067.72;5005930;28;1641;-58
2021/05/13 08:41:12;;;;;;;;;;;;;;;19.67;59.70;100071.41;5011430;28;1013;-59
2021/05/13 08:43:38;;;;;;;;;;;;;;;19.66;59.44;100070.56;5004484;28;1898;-59
2021/05/13 08:46:04;;;;;;;;;;;;;;;19.68;59.22;100063.19;5014503;28;1598;-59
2021/05/13 08:48:31;;;;;;;;;;;;;;;19.69;59.42;100072.06;5008104;28;1480;-58
2021/05/13 08:50:59;;;;;;;;;;;;;;;19.69;59.71;100072.06;5005105;28;1638;-59
2021/05/13 08:53:25;;;;;;;;;;;;;;;19.72;59.26;100071.81;5009087;28;1992;-59
2021/05/13 08:55:51;;;;;;;;;;;;;;;19.75;59.48;100066.13;5015860;28;1135;-59
2021/05/13 08:58:17;;;;;;;;;;;;;;;19.78;59.34;100065.81;5007447;28;1853;-58
2021/05/13 09:00:50;;;;;;;;;;;;;;;19.76;58.28;100057.09;5011676;28;1633;-59
2021/05/13 09:03:29;;;;;;;;;;;;;;;19.73;59.52;100065.44;5015163;28;1776;-58
2021/05/13 09:05:56;;;;;;;;;;;;;;;19.71;59.28;100070.13;5009822;28;1523;-60
2021/05/13 09:08:23;;;;;;;;;;;;;;;19.73;59.71;100056.56;5005327;28;1853;-59
2021/05/13 09:10:50;;;;;;;;;;;;;;;19.72;59.85;100054.88;5007491;28;1127;-59
2021/05/13 09:13:25;;;;;;;;;;;;;;;19.76;59.28;100051.72;5007208;28;1679;-59
2021/05/13 09:15:51;;;;;;;;;;;;;;;19.78;59.22;100060.44;5007100;28;1587;-59
2021/05/13 09:18:30;;;;;;;;;;;;;;;19.79;59.41;100037.97;5004033;28;1563;-58
2021/05/13 09:21:04;;;;;;;;;;;;;;;19.78;58.58;100049.72;5007150;28;1785;-59
2021/05/13 09:23:30;;;;;;;;;;;;;;;19.78;59.02;100057.75;5006103;28;1444;-59
2021/05/13 09:26:06;;;;;;;;;;;;;;;19.82;58.85;100051.09;5015231;28;931;-59
2021/05/13 09:28:32;;;;;;;;;;;;;;;19.81;59.04;100060.13;5014505;28;1729;-59
2021/05/13 09:30:58;;;;;;;;;;;;;;;19.79;59.20;100067.47;5006852;28;1610;-59
2021/05/13 09:33:27;;;;;;;;;;;;;;;19.79;59.35;100042.50;5005014;28;1706;-59
2021/05/13 09:35:53;;;;;;;;;;;;;;;19.77;59.80;100041.81;5004476;28;1571;-59
2021/05/13 09:38:31;;;;;;;;;;;;;;;19.76;59.46;100046.34;5008136;28;1720;-59
2021/05/13 09:40:57;;;;;;;;;;;;;;;19.73;59.77;100046.66;5015301;28;928;-60
2021/05/13 09:43:24;;;;;;;;;;;;;;;19.77;59.57;100041.81;5014836;28;1590;-58
2021/05/13 09:45:50;;;;;;;;;;;;;;;19.77;59.53;100037.28;5008288;28;1971;-58
2021/05/13 09:48:33;;;;;;;;;;;;;;;19.76;59.11;100043.66;5004704;28;1638;-59
2021/05/13 09:51:15;;;;;;;;;;;;;;;19.77;59.13;100034.59;5004922;28;1586;-59
2021/05/13 09:53:41;;;;;;;;;;;;;;;19.77;59.84;100031.09;5009973;28;1497;-59
2021/05/13 09:56:21;;;;;;;;;;;;;;;19.78;59.57;100044.34;5015032;28;1073;-58
2021/05/13 09:58:47;;;;;;;;;;;;;;;19.76;59.77;100046.34;5008051;28;1556;-58
2021/05/13 10:01:13;;;;;;;;;;;;;;;19.73;59.49;100027.03;5009603;28;1500;-59
2021/05/13 10:03:39;;;;;;;;;;;;;;;19.72;59.61;100020.00;5006932;28;1970;-58
2021/05/13 10:06:06;;;;;;;;;;;;;;;19.69;59.33;100023.78;5003177;28;1623;-58
2021/05/13 10:08:32;;;;;;;;;;;;;;;19.70;59.37;100019.28;5003121;28;1500;-58
2021/05/13 10:10:59;;;;;;;;;;;;;;;19.71;59.65;100012.91;5001784;28;1111;-59
2021/05/13 10:13:29;;;;;;;;;;;;;;;19.70;60.11;100028.19;5000243;28;1788;-59
2021/05/13 10:15:55;;;;;;;;;;;;;;;19.69;59.73;100023.78;5004372;28;1453;-58
2021/05/13 10:18:26;;;;;;;;;;;;;;;19.74;59.84;100032.25;5004323;28;1535;-58
2021/05/13 10:20:59;;;;;;;;;;;;;;;19.74;59.39;100018.84;5004149;28;1967;-58
2021/05/13 10:23:26;;;;;;;;;;;;;;;19.73;59.54;100013.63;5005061;28;1532;-58
2021/05/13 10:25:52;;;;;;;;;;;;;;;19.73;59.26;100006.41;5008174;28;1902;-59
2021/05/13 10:28:27;;;;;;;;;;;;;;;19.68;59.97;100014.91;5015535;28;1764;-59
2021/05/13 10:30:59;;;;;;;;;;;;;;;19.68;59.25;100011.41;5007149;28;1583;-59
2021/05/13 10:33:25;;;;;;;;;;;;;;;19.69;59.50;100026.47;5005754;28;1626;-59
2021/05/13 10:36:01;;;;;;;;;;;;;;;19.70;58.86;100009.41;5009604;28;1597;-58
2021/05/13 10:38:38;;;;;;;;;;;;;;;19.67;59.24;100005.16;5011395;28;1637;-59
2021/05/13 10:41:30;;;;;;;;;;;;;;;19.70;59.54;100004.03;5009482;28;1051;-58
2021/05/13 10:43:58;;;;;;;;;;;;;;;19.68;59.21;99998.81;5003179;28;1903;-58
2021/05/13 10:46:26;;;;;;;;;;;;;;;19.72;59.20;100001.22;5014686;28;1565;-58
2021/05/13 10:48:52;;;;;;;;;;;;;;;19.71;59.64;100004.88;5008857;28;1460;-58
2021/05/13 10:51:25;;;;;;;;;;;;;;;19.66;59.40;99997.31;5009810;28;1535;-60
2021/05/13 10:53:51;;;;;;;;;;;;;;;19.67;59.33;99993.59;5008728;28;1649;-59
2021/05/13 10:56:19;;;;;;;;;;;;;;;19.71;59.57;100004.88;5000239;28;1069;-59
2021/05/13 10:58:58;;;;;;;;;;;;;;;19.69;59.74;100007.69;5000818;28;1535;-59
2021/05/13 11:01:32;;;;;;;;;;;;;;;19.71;59.58;100002.19;5002673;28;1725;-59
2021/05/13 11:04:17;;;;;;;;;;;;;;;19.71;59.50;99986.09;5003759;28;1906;-58
2021/05/13 11:06:43;;;;;;;;;;;;;;;19.70;59.33;99987.94;5011925;28;1430;-59
2021/05/13 11:09:09;;;;;;;;;;;;;;;19.71;59.28;99981.59;5004540;28;1745;-59
2021/05/13 11:11:50;;;;;;;;;;;;;;;19.71;59.18;99984.28;4997092;28;1133;-59
2021/05/13 11:14:21;;;;;;;;;;;;;;;19.69;59.64;99980.88;5006080;28;1834;-58
2021/05/13 11:16:55;;;;;;;;;;;;;;;19.69;59.07;99978.19;5014690;28;1267;-59
2021/05/13 11:19:25;;;;;;;;;;;;;;;19.69;58.98;99980.88;5003482;28;1518;-59
2021/05/13 11:22:02;;;;;;;;;;;;;;;19.68;58.82;99980.03;5005117;28;1645;-59
2021/05/13 11:24:32;;;;;;;;;;;;;;;19.67;58.95;99964.09;5014251;28;1910;-59
2021/05/13 11:26:58;;;;;;;;;;;;;;;19.70;59.21;99971.84;5013080;28;1587;-59
2021/05/13 11:29:25;;;;;;;;;;;;;;;19.68;59.42;99963.13;5005362;28;1594;-60
2021/05/13 11:31:52;;;;;;;;;;;;;;;19.66;59.69;99967.81;5014145;28;2007;-59
2021/05/13 11:34:18;;;;;;;;;;;;;;;19.68;59.10;99966.63;5006468;28;1510;-59
2021/05/13 11:36:46;;;;;;;;;;;;;;;19.70;59.57;99979.91;5011951;28;1612;-59
2021/05/13 11:39:13;;;;;;;;;;;;;;;19.70;59.25;99966.47;5014092;28;1541;-58
2021/05/13 11:41:39;;;;;;;;;;;;;;;19.71;59.36;99961.94;5014247;28;1465;-59
2021/05/13 11:44:05;;;;;;;;;;;;;;;19.68;59.44;99965.81;5014289;28;1906;-59
2021/05/13 11:46:36;;;;;;;;;;;;;;;19.71;59.53;99960.13;5002540;28;1793;-59
2021/05/13 11:49:02;;;;;;;;;;;;;;;19.72;59.13;99964.50;5002783;28;1809;-58
2021/05/13 11:51:28;;;;;;;;;;;;;;;19.72;58.75;99964.50;5008061;28;1454;-59
2021/05/13 11:53:55;;;;;;;;;;;;;;;19.73;59.09;99955.44;5002069;28;1587;-58
2021/05/13 11:56:21;;;;;;;;;;;;;;;19.70;59.55;99961.13;5011233;28;964;-59
2021/05/13 11:58:48;;;;;;;;;;;;;;;19.71;59.39;99960.13;5014177;28;1815;-58
2021/05/13 12:01:28;;;;;;;;;;;;;;;19.70;59.62;99957.59;5013874;28;1820;-59
2021/05/13 12:04:20;;;;;;;;;;;;;;;19.70;59.37;99953.06;5000419;28;1962;-60
2021/05/13 12:06:48;;;;;;;;;;;;;;;19.70;59.05;99949.56;5000114;28;1866;-59
2021/05/13 12:09:15;;;;;;;;;;;;;;;19.68;59.36;99955.06;5008072;28;1557;-59
2021/05/13 12:11:42;;;;;;;;;;;;;;;19.70;59.79;99965.66;4995915;28;1721;-60
2021/05/13 12:14:09;;;;;;;;;;;;;;;19.68;59.25;99952.38;5014191;28;1386;-58
2021/05/13 12:16:35;;;;;;;;;;;;;;;19.71;59.39;99954.78;5013485;28;1773;-58
2021/05/13 12:19:05;;;;;;;;;;;;;;;19.68;59.44;99941.66;5007897;28;1468;-60
2021/05/13 12:21:31;;;;;;;;;;;;;;;19.68;59.07;99936.28;5000208;28;1734;-59
2021/05/13 12:23:58;;;;;;;;;;;;;;;19.70;59.38;99944.19;5004457;28;1910;-59
2021/05/13 12:26:26;;;;;;;;;;;;;;;19.68;59.35;99941.66;5012996;28;975;-58
2021/05/13 12:28:52;;;;;;;;;;;;;;;19.67;59.61;99939.97;5005735;28;1506;-58
2021/05/13 12:31:29;;;;;;;;;;;;;;;19.68;58.92;99934.44;5016995;28;1511;-59
2021/05/13 12:34:01;;;;;;;;;;;;;;;19.67;59.26;99945.31;5003569;28;1714;-59
2021/05/13 12:36:26;;;;;;;;;;;;;;;19.69;59.57;99948.69;5016981;28;1614;-59
2021/05/13 12:38:53;;;;;;;;;;;;;;;19.67;58.82;99937.28;5016613;28;1472;-60
2021/05/13 12:41:24;;;;;;;;;;;;;;;19.69;59.70;99946.00;5018084;28;1031;-60
2021/05/13 12:43:50;;;;;;;;;;;;;;;19.68;59.45;99947.03;5005508;28;1726;-59
2021/05/13 12:46:20;;;;;;;;;;;;;;;19.68;58.95;99947.03;5006700;28;1765;-59
2021/05/13 12:48:47;;;;;;;;;;;;;;;19.69;59.37;99943.31;5010778;28;1472;-59
2021/05/13 12:51:14;;;;;;;;;;;;;;;19.67;59.15;99929.22;5005512;28;1661;-58